createdAt,value
2023-01-19T00:00:29.201Z,57.10
2023-01-19T00:02:56.404Z,61.20
2023-01-19T00:05:23.200Z,58.50
2023-01-19T00:07:49.985Z,46.10
2023-01-19T00:10:17.156Z,44.20
2023-01-19T00:12:44.070Z,42.80
2023-01-19T00:15:11.438Z,50.10
2023-01-19T00:17:41.001Z,67.90
2023-01-19T00:20:09.823Z,72.70
2023-01-19T00:22:36.641Z,82.10
2023-01-19T00:25:03.975Z,77.60
2023-01-19T00:27:34.908Z,68.90
2023-01-19T00:30:02.416Z,71.10
2023-01-19T00:32:29.376Z,66.00
2023-01-19T00:34:56.198Z,47.50
2023-01-19T00:37:23.250Z,44.20
2023-01-19T00:39:50.365Z,47.50
2023-01-19T00:42:32.616Z,45.20
2023-01-19T00:44:59.680Z,41.00
2023-01-19T00:47:26.443Z,51.70
2023-01-19T00:49:53.186Z,58.00
2023-01-19T00:52:20.164Z,52.10
2023-01-19T00:54:47.078Z,72.10
2023-01-19T00:57:15.620Z,67.60
2023-01-19T00:59:42.697Z,69.80
2023-01-19T01:02:09.622Z,62.00
2023-01-19T01:04:36.451Z,56.30
2023-01-19T01:07:04.304Z,58.00
2023-01-19T01:09:31.205Z,56.50
2023-01-19T01:11:57.977Z,70.90
2023-01-19T01:14:26.681Z,66.60
2023-01-19T01:16:53.635Z,58.50
2023-01-19T01:19:21.528Z,63.20
2023-01-19T01:21:48.320Z,47.30
2023-01-19T01:24:15.118Z,50.90
2023-01-19T01:26:41.941Z,51.20
2023-01-19T01:29:08.742Z,51.40
2023-01-19T01:31:35.574Z,51.60
2023-01-19T01:34:02.567Z,62.40
2023-01-19T01:36:32.188Z,52.40
2023-01-19T01:39:00.121Z,61.60
2023-01-19T01:41:27.717Z,54.80
2023-01-19T01:44:01.768Z,56.20
2023-01-19T01:46:31.467Z,51.60
2023-01-19T01:49:05.758Z,51.20
2023-01-19T01:54:19.623Z,44.10
2023-01-19T01:56:49.097Z,45.40
2023-01-19T01:59:29.852Z,47.00
2023-01-19T02:02:15.838Z,46.60
2023-01-19T02:04:54.356Z,54.90
2023-01-19T02:07:45.375Z,45.90
2023-01-19T02:10:27.266Z,51.80
2023-01-19T02:13:10.033Z,45.00
2023-01-19T02:15:36.983Z,59.20
2023-01-19T02:18:04.038Z,49.90
2023-01-19T02:20:35.846Z,59.40
2023-01-19T02:23:07.417Z,61.00
2023-01-19T02:25:34.484Z,53.50
2023-01-19T02:28:01.387Z,51.00
2023-01-19T02:30:28.784Z,53.40
2023-01-19T02:32:55.644Z,53.70
2023-01-19T02:35:23.667Z,53.40
2023-01-19T02:37:51.691Z,57.10
2023-01-19T02:40:21.223Z,54.30
2023-01-19T02:42:51.112Z,59.40
2023-01-19T02:45:21.912Z,61.00
2023-01-19T02:47:51.204Z,58.00
2023-01-19T02:50:34.434Z,57.00
2023-01-19T02:53:23.676Z,52.20
2023-01-19T02:56:03.888Z,55.00
2023-01-19T02:58:52.738Z,57.00
2023-01-19T03:01:21.755Z,55.80
2023-01-19T03:03:58.673Z,54.60
2023-01-19T03:06:39.142Z,53.30
2023-01-19T03:09:15.000Z,54.60
2023-01-19T03:11:47.087Z,57.10
2023-01-19T03:14:21.752Z,55.80
2023-01-19T03:16:55.890Z,50.20
2023-01-19T03:21:57.615Z,47.40
2023-01-19T03:24:25.714Z,47.20
2023-01-19T03:26:58.988Z,44.20
2023-01-19T03:29:30.219Z,56.40
2023-01-19T03:31:59.877Z,50.30
2023-01-19T03:34:29.061Z,48.20
2023-01-19T03:37:00.588Z,51.20
2023-01-19T03:39:28.881Z,49.70
2023-01-19T03:42:02.421Z,49.70
2023-01-19T03:44:31.265Z,49.30
2023-01-19T03:46:59.910Z,42.30
2023-01-19T03:49:27.249Z,46.80
2023-01-19T03:51:59.071Z,49.10
2023-01-19T03:54:27.101Z,45.40
2023-01-19T03:56:54.132Z,46.70
2023-01-19T03:59:21.862Z,48.70
2023-01-19T04:01:48.748Z,49.90
2023-01-19T04:04:15.823Z,48.10
2023-01-19T04:06:43.374Z,51.60
2023-01-19T04:09:10.309Z,46.90
2023-01-19T04:11:37.035Z,45.60
2023-01-19T04:14:04.289Z,48.70
2023-01-19T04:16:31.082Z,47.90
2023-01-19T04:18:58.026Z,50.40
2023-01-19T04:21:24.930Z,46.10
2023-01-19T04:23:53.290Z,47.90
2023-01-19T04:26:20.313Z,50.20
2023-01-19T04:28:47.104Z,50.60
2023-01-19T04:31:14.433Z,50.20
2023-01-19T04:33:41.385Z,50.20
2023-01-19T04:36:08.761Z,47.80
2023-01-19T04:38:36.028Z,49.50
2023-01-19T04:41:02.768Z,51.20
2023-01-19T04:43:29.633Z,44.40
2023-01-19T04:45:56.903Z,52.20
2023-01-19T04:48:24.037Z,57.50
2023-01-19T04:50:52.512Z,45.10
2023-01-19T04:53:19.486Z,47.30
2023-01-19T04:55:46.896Z,45.70
2023-01-19T04:58:14.107Z,49.10
2023-01-19T05:00:40.847Z,48.80
2023-01-19T05:03:07.650Z,54.70
2023-01-19T05:05:34.595Z,48.10
2023-01-19T05:08:01.397Z,49.40
2023-01-19T05:10:28.813Z,60.40
2023-01-19T05:12:55.832Z,48.00
2023-01-19T05:15:23.047Z,49.90
2023-01-19T05:17:49.830Z,48.00
2023-01-19T05:20:17.554Z,44.80
2023-01-19T05:22:52.857Z,49.20
2023-01-19T05:25:20.333Z,43.20
2023-01-19T05:27:47.126Z,47.00
2023-01-19T05:30:14.441Z,50.00
2023-01-19T05:32:41.617Z,53.10
2023-01-19T05:35:09.206Z,50.80
2023-01-19T05:37:35.961Z,46.90
2023-01-19T05:40:02.815Z,48.50
2023-01-19T05:42:31.913Z,51.00
2023-01-19T05:44:59.958Z,48.10
2023-01-19T05:47:29.342Z,51.80
2023-01-19T05:49:56.480Z,53.70
2023-01-19T05:52:25.054Z,59.90
2023-01-19T05:54:51.954Z,56.30
2023-01-19T05:57:19.209Z,69.50
2023-01-19T05:59:45.969Z,70.00
2023-01-19T06:02:12.961Z,70.10
2023-01-19T06:04:39.824Z,75.20
2023-01-19T06:07:07.728Z,82.80
2023-01-19T06:09:34.514Z,48.70
2023-01-19T06:12:01.592Z,75.00
2023-01-19T06:14:28.344Z,74.40
2023-01-19T06:16:55.348Z,79.90
2023-01-19T06:19:22.196Z,72.30
2023-01-19T06:21:52.143Z,75.70
2023-01-19T06:24:19.509Z,73.40
2023-01-19T06:26:46.465Z,84.50
2023-01-19T06:29:14.546Z,84.50
2023-01-19T06:31:42.007Z,97.10
2023-01-19T06:34:09.666Z,87.00
2023-01-19T06:36:36.872Z,90.80
2023-01-19T06:39:06.004Z,81.60
2023-01-19T06:41:34.198Z,95.00
2023-01-19T06:44:01.989Z,86.70
2023-01-19T06:46:29.688Z,81.70
2023-01-19T06:48:56.787Z,93.50
2023-01-19T06:51:24.136Z,81.50
2023-01-19T06:53:51.076Z,92.30
2023-01-19T06:56:17.885Z,109.80
2023-01-19T06:58:47.451Z,78.00
2023-01-19T07:01:14.593Z,79.80
2023-01-19T07:03:41.460Z,81.10
2023-01-19T07:06:08.776Z,77.30
2023-01-19T07:08:36.997Z,68.50
2023-01-19T07:11:26.264Z,48.90
2023-01-19T07:13:54.685Z,62.00
2023-01-19T07:16:21.688Z,56.80
2023-01-19T07:18:49.570Z,48.40
2023-01-19T07:21:16.822Z,63.70
2023-01-19T07:23:43.673Z,74.70
2023-01-19T07:26:10.961Z,64.00
2023-01-19T07:28:37.905Z,56.20
2023-01-19T07:31:04.897Z,63.60
2023-01-19T07:33:31.855Z,59.10
2023-01-19T07:35:58.747Z,73.50
2023-01-19T07:38:25.679Z,76.70
2023-01-19T07:40:52.409Z,64.40
2023-01-19T07:43:19.831Z,73.90
2023-01-19T07:45:46.769Z,72.50
2023-01-19T07:48:13.565Z,69.40
2023-01-19T07:50:40.361Z,64.90
2023-01-19T07:53:08.922Z,67.10
2023-01-19T07:55:35.940Z,70.30
2023-01-19T07:58:06.678Z,65.90
2023-01-19T08:00:35.422Z,67.00
2023-01-19T08:03:04.157Z,70.60
2023-01-19T08:05:32.628Z,64.90
2023-01-19T08:07:59.412Z,62.90
2023-01-19T08:10:28.373Z,72.40
2023-01-19T08:12:56.410Z,69.00
2023-01-19T08:15:24.843Z,75.10
2023-01-19T08:18:09.621Z,68.30
2023-01-19T08:20:36.681Z,69.70
2023-01-19T08:23:04.940Z,77.50
2023-01-19T08:25:34.254Z,76.10
2023-01-19T08:28:01.646Z,64.20
2023-01-19T08:30:28.504Z,67.70
2023-01-19T08:33:04.472Z,43.20
2023-01-19T08:35:32.525Z,61.80
2023-01-19T08:38:01.635Z,76.40
2023-01-19T08:40:30.164Z,61.00
2023-01-19T08:43:01.943Z,65.10
2023-01-19T08:45:31.104Z,60.40
2023-01-19T08:48:00.207Z,65.90
2023-01-19T08:50:29.124Z,60.60
2023-01-19T08:52:58.138Z,54.60
2023-01-19T08:55:25.738Z,64.40
2023-01-19T08:57:53.827Z,66.00
2023-01-19T09:00:21.504Z,76.20
2023-01-19T09:02:49.032Z,71.20
2023-01-19T09:05:16.058Z,62.90
2023-01-19T09:07:44.527Z,65.10
2023-01-19T09:10:12.042Z,65.90
2023-01-19T09:12:38.773Z,61.50
2023-01-19T09:15:06.187Z,59.90
2023-01-19T09:17:33.643Z,61.40
2023-01-19T09:20:00.421Z,64.10
2023-01-19T09:22:27.228Z,68.70
2023-01-19T09:24:53.953Z,70.70
2023-01-19T09:27:20.789Z,61.90
2023-01-19T09:29:52.605Z,63.10
2023-01-19T09:32:20.975Z,56.00
2023-01-19T09:34:48.061Z,65.80
2023-01-19T09:37:16.334Z,56.10
2023-01-19T09:39:43.217Z,49.00
2023-01-19T09:42:22.450Z,63.30
2023-01-19T09:44:51.014Z,49.30
2023-01-19T09:47:24.162Z,60.00
2023-01-19T09:49:58.853Z,60.10
2023-01-19T09:52:25.935Z,55.40
2023-01-19T09:54:55.117Z,56.50
2023-01-19T09:57:24.049Z,59.60
2023-01-19T09:59:51.605Z,64.50
2023-01-19T10:02:26.308Z,54.10
2023-01-19T10:05:08.786Z,67.50
2023-01-19T10:07:58.229Z,66.50
2023-01-19T10:10:28.391Z,77.10
2023-01-19T10:12:56.257Z,70.10
2023-01-19T10:15:52.977Z,73.20
2023-01-19T10:18:25.693Z,70.00
2023-01-19T10:20:52.480Z,75.10
2023-01-19T10:23:39.890Z,67.30
2023-01-19T10:26:22.908Z,70.80
2023-01-19T10:28:53.157Z,69.80
2023-01-19T10:31:24.093Z,74.00
2023-01-19T10:33:52.591Z,73.10
2023-01-19T10:36:26.379Z,72.00
2023-01-19T10:38:53.423Z,77.70
2023-01-19T10:41:28.560Z,74.80
2023-01-19T10:44:05.509Z,73.90
2023-01-19T10:46:37.376Z,72.50
2023-01-19T10:49:05.703Z,68.60
2023-01-19T10:51:32.592Z,67.70
2023-01-19T10:54:03.222Z,73.20
2023-01-19T10:56:35.136Z,79.20
2023-01-19T10:59:04.665Z,68.40
2023-01-19T11:01:36.042Z,65.60
2023-01-19T11:04:22.267Z,68.20
2023-01-19T11:06:49.080Z,65.60
2023-01-19T11:09:18.910Z,66.00
2023-01-19T11:11:49.421Z,65.10
2023-01-19T11:14:20.299Z,66.60
2023-01-19T11:16:51.599Z,63.30
2023-01-19T11:19:24.726Z,62.40
2023-01-19T11:21:51.996Z,60.30
2023-01-19T11:24:20.125Z,59.40
2023-01-19T11:26:50.357Z,68.40
2023-01-19T11:29:23.998Z,70.60
2023-01-19T11:31:51.826Z,60.30
2023-01-19T11:34:24.228Z,65.40
2023-01-19T11:37:01.502Z,61.50
2023-01-19T11:39:31.435Z,58.90
2023-01-19T11:42:02.787Z,66.70
2023-01-19T11:44:32.989Z,60.60
2023-01-19T11:47:02.158Z,60.30
2023-01-19T11:49:37.517Z,57.30
2023-01-19T11:52:25.833Z,55.90
2023-01-19T11:55:17.461Z,65.20
2023-01-19T11:57:47.820Z,56.80
2023-01-19T12:00:24.831Z,55.30
2023-01-19T12:02:57.453Z,54.50
2023-01-19T12:05:29.734Z,43.20
2023-01-19T12:08:03.039Z,53.10
2023-01-19T12:10:36.416Z,58.40
2023-01-19T12:13:04.054Z,58.70
2023-01-19T12:15:47.370Z,64.60
2023-01-19T12:18:21.859Z,63.80
2023-01-19T12:20:52.996Z,65.70
2023-01-19T12:23:20.796Z,51.40
2023-01-19T12:25:47.602Z,52.20
2023-01-19T12:28:17.476Z,55.90
2023-01-19T12:30:44.586Z,52.60
2023-01-19T12:33:26.575Z,46.80
2023-01-19T12:36:03.965Z,48.90
2023-01-19T12:38:35.205Z,48.40
2023-01-19T12:41:33.329Z,49.00
2023-01-19T12:44:20.672Z,43.30
2023-01-19T12:47:20.322Z,45.50
2023-01-19T12:49:51.496Z,43.50
2023-01-19T12:52:19.815Z,47.50
2023-01-19T12:54:57.659Z,50.00
2023-01-19T12:57:32.748Z,51.00
2023-01-19T13:00:07.142Z,44.40
2023-01-19T13:02:42.802Z,43.10
2023-01-19T13:05:10.641Z,46.30
2023-01-19T13:08:09.477Z,48.10
2023-01-19T13:10:52.809Z,45.80
2023-01-19T13:13:25.212Z,44.30
2023-01-19T13:15:55.762Z,41.50
2023-01-19T13:18:28.355Z,43.50
2023-01-19T13:21:00.206Z,43.90
2023-01-19T13:23:29.717Z,41.70
2023-01-19T13:26:04.906Z,39.40
2023-01-19T13:28:39.304Z,38.50
2023-01-19T13:31:07.209Z,41.30
2023-01-19T13:33:44.329Z,46.90
2023-01-19T13:36:22.611Z,39.90
2023-01-19T13:38:51.695Z,36.90
2023-01-19T13:41:23.121Z,33.20
2023-01-19T13:44:05.395Z,31.00
2023-01-19T13:46:33.679Z,24.80
2023-01-19T13:49:13.804Z,34.00
2023-01-19T13:51:40.639Z,39.10
2023-01-19T13:54:16.889Z,38.10
2023-01-19T21:57:08.799Z,68.30
2023-01-19T21:59:35.730Z,61.80
2023-01-19T22:02:02.634Z,62.30
2023-01-19T22:04:29.920Z,63.80
2023-01-19T22:06:56.635Z,63.60
2023-01-19T22:09:23.434Z,59.50
2023-01-19T22:11:50.251Z,57.50
2023-01-19T22:14:17.030Z,68.40
2023-01-19T22:16:44.174Z,79.60
2023-01-19T22:19:12.996Z,77.30
2023-01-19T22:21:40.085Z,72.80
2023-01-19T22:24:07.422Z,71.40
2023-01-19T22:26:35.055Z,76.50
2023-01-19T22:29:03.840Z,73.20
2023-01-19T22:31:31.135Z,73.20
2023-01-19T22:33:58.773Z,63.20
2023-01-19T22:36:29.016Z,65.20
2023-01-19T22:38:59.733Z,66.30
2023-01-19T22:41:31.980Z,56.30
2023-01-19T22:44:01.896Z,74.20
2023-01-19T22:46:32.166Z,59.80
2023-01-19T22:48:59.898Z,78.70
2023-01-19T22:51:28.619Z,77.80
2023-01-19T22:53:55.494Z,71.60
2023-01-19T22:56:27.929Z,64.50
2023-01-19T22:58:55.123Z,68.20
2023-01-19T23:01:24.978Z,68.00
2023-01-19T23:03:53.090Z,68.00
2023-01-19T23:06:23.862Z,72.20
2023-01-19T23:08:51.613Z,77.70
2023-01-19T23:11:21.368Z,78.00
2023-01-19T23:13:48.741Z,75.80
2023-01-19T23:16:15.879Z,75.50
2023-01-19T23:18:43.859Z,77.70
2023-01-19T23:21:12.468Z,73.90
2023-01-19T23:23:39.955Z,75.30
2023-01-19T23:26:12.341Z,72.90
2023-01-19T23:28:39.627Z,59.30
2023-01-19T23:31:14.326Z,62.70
2023-01-19T23:33:41.876Z,56.00
2023-01-19T23:36:08.827Z,61.40
2023-01-19T23:38:35.657Z,56.60
2023-01-19T23:41:02.415Z,53.80
2023-01-19T23:43:29.318Z,50.80
2023-01-19T23:45:56.406Z,49.50
2023-01-19T23:48:23.339Z,48.50
2023-01-19T23:50:50.148Z,46.00
2023-01-19T23:53:17.055Z,41.20
2023-01-19T23:55:43.810Z,40.10
2023-01-19T23:58:10.563Z,41.20
